createdAt,value
2023-01-03T00:02:18.427Z,4.55
2023-01-03T00:04:49.999Z,4.15
2023-01-03T00:10:10.555Z,2.58
2023-01-03T00:12:42.971Z,4.35
2023-01-03T00:15:14.505Z,5.47
2023-01-03T00:17:44.267Z,4.63
2023-01-03T00:20:13.580Z,5.25
2023-01-03T00:22:44.881Z,3.65
2023-01-03T00:25:14.155Z,3.17
2023-01-03T00:27:43.195Z,4.22
2023-01-03T00:30:13.335Z,4.00
2023-01-03T00:32:47.672Z,3.28
2023-01-03T00:35:16.855Z,3.45
2023-01-03T00:37:48.440Z,2.90
2023-01-03T00:40:23.670Z,2.90
2023-01-03T00:43:10.744Z,4.45
2023-01-03T00:45:40.083Z,1.65
2023-01-03T00:48:09.372Z,2.45
2023-01-03T00:50:48.657Z,3.15
2023-01-03T00:53:24.869Z,2.95
2023-01-03T00:55:55.431Z,2.00
2023-01-03T00:58:24.554Z,2.95
2023-01-03T01:00:53.691Z,2.90
2023-01-03T01:03:29.544Z,6.32
2023-01-03T01:05:58.878Z,3.78
2023-01-03T01:08:29.988Z,2.70
2023-01-03T01:11:10.640Z,1.88
2023-01-03T01:13:42.090Z,4.95
2023-01-03T01:16:13.440Z,3.53
2023-01-03T01:18:49.867Z,4.88
2023-01-03T01:21:22.183Z,3.15
2023-01-03T01:23:54.528Z,3.80
2023-01-03T01:26:25.277Z,3.42
2023-01-03T01:28:55.652Z,6.25
2023-01-03T01:31:36.035Z,2.97
2023-01-03T01:34:05.273Z,5.10
2023-01-03T01:36:37.053Z,4.07
2023-01-03T01:41:51.760Z,2.47
2023-01-03T01:44:48.437Z,6.28
2023-01-03T01:47:24.630Z,4.25
2023-01-03T01:50:05.403Z,3.58
2023-01-03T01:52:38.358Z,3.28
2023-01-03T01:55:16.081Z,3.83
2023-01-03T01:57:46.562Z,3.22
2023-01-03T02:00:16.835Z,5.05
2023-01-03T02:02:50.050Z,5.35
2023-01-03T02:05:21.127Z,3.33
2023-01-03T02:07:51.866Z,3.53
2023-01-03T02:10:33.036Z,3.45
2023-01-03T02:13:10.935Z,3.08
2023-01-03T02:15:51.019Z,3.13
2023-01-03T02:18:48.996Z,2.67
2023-01-03T02:24:50.556Z,2.28
2023-01-03T02:27:48.229Z,2.85
2023-01-03T02:30:36.805Z,2.60
2023-01-03T02:33:19.999Z,4.15
2023-01-03T02:36:07.384Z,2.63
2023-01-03T02:38:47.618Z,3.67
2023-01-03T02:41:26.235Z,3.40
2023-01-03T02:44:00.990Z,3.30
2023-01-03T02:46:44.172Z,3.33
2023-01-03T02:49:29.757Z,1.88
2023-01-03T02:52:03.432Z,4.18
2023-01-03T02:54:42.160Z,4.00
2023-01-03T02:57:15.148Z,4.53
2023-01-03T03:02:45.495Z,3.78
2023-01-03T03:07:49.487Z,5.75
2023-01-03T03:10:31.913Z,4.65
2023-01-03T03:13:15.565Z,8.57
2023-01-03T03:15:52.108Z,6.10
2023-01-03T03:18:31.944Z,6.32
2023-01-03T03:21:16.337Z,5.03
2023-01-03T03:24:02.046Z,7.30
2023-01-03T03:26:38.056Z,7.13
2023-01-03T03:29:16.214Z,5.47
2023-01-03T03:31:50.270Z,4.68
2023-01-03T03:34:26.340Z,5.65
2023-01-03T03:36:58.887Z,4.90
2023-01-03T03:39:42.729Z,8.48
2023-01-03T03:42:40.911Z,6.10
2023-01-03T03:45:17.928Z,4.75
2023-01-03T03:47:52.896Z,3.22
2023-01-03T03:50:29.570Z,4.00
2023-01-03T03:53:07.689Z,5.97
2023-01-03T03:55:41.229Z,5.57
2023-01-03T03:58:19.868Z,5.20
2023-01-03T04:00:53.097Z,5.30
2023-01-03T04:03:25.527Z,5.25
2023-01-03T04:06:10.542Z,5.78
2023-01-03T04:08:39.819Z,5.57
2023-01-03T04:11:09.130Z,5.05
2023-01-03T04:13:49.605Z,4.72
2023-01-03T04:16:18.745Z,7.70
2023-01-03T04:18:47.837Z,6.03
2023-01-03T04:21:24.026Z,4.45
2023-01-03T04:23:57.267Z,3.25
2023-01-03T04:26:26.505Z,2.53
2023-01-03T04:28:56.686Z,3.03
2023-01-03T04:31:31.304Z,2.47
2023-01-03T04:34:00.603Z,2.88
2023-01-03T04:36:31.677Z,2.65
2023-01-03T04:39:01.984Z,3.90
2023-01-03T04:41:31.236Z,4.32
2023-01-03T04:44:04.371Z,3.42
2023-01-03T04:46:35.676Z,4.85
2023-01-03T04:49:07.003Z,3.13
2023-01-03T04:51:39.194Z,3.53
2023-01-03T04:54:09.615Z,4.47
2023-01-03T04:56:40.034Z,3.63
2023-01-03T04:59:09.253Z,4.82
2023-01-03T05:01:38.455Z,3.90
2023-01-03T05:04:08.105Z,4.35
2023-01-03T05:09:14.630Z,5.10
2023-01-03T05:11:43.729Z,3.95
2023-01-03T05:14:17.981Z,3.72
2023-01-03T05:16:48.403Z,5.40
2023-01-03T05:19:17.564Z,5.05
2023-01-03T05:22:01.659Z,6.60
2023-01-03T05:24:43.893Z,8.45
2023-01-03T05:27:13.556Z,4.35
2023-01-03T05:29:43.689Z,10.05
2023-01-03T05:32:18.215Z,4.00
2023-01-03T05:34:47.315Z,4.80
2023-01-03T05:37:19.095Z,9.23
2023-01-03T05:42:23.634Z,9.70
2023-01-03T05:44:52.825Z,11.23
2023-01-03T05:47:22.077Z,10.10
2023-01-03T05:49:58.379Z,10.63
2023-01-03T05:52:29.676Z,9.95
2023-01-03T05:54:58.927Z,12.65
2023-01-03T05:57:33.426Z,8.73
2023-01-03T06:00:05.458Z,8.80
2023-01-03T06:02:35.809Z,10.23
2023-01-03T06:05:04.980Z,8.60
2023-01-03T06:07:41.177Z,7.85
2023-01-03T06:10:16.206Z,10.18
2023-01-03T06:12:45.472Z,7.07
2023-01-03T06:15:14.537Z,7.32
2023-01-03T06:18:02.032Z,7.88
2023-01-03T06:20:32.475Z,7.35
2023-01-03T06:23:10.052Z,9.85
2023-01-03T06:25:44.214Z,6.95
2023-01-03T06:28:13.348Z,8.30
2023-01-03T06:30:43.741Z,8.30
2023-01-03T06:33:13.124Z,7.65
2023-01-03T06:35:53.073Z,6.28
2023-01-03T06:38:24.221Z,5.32
2023-01-03T06:40:53.392Z,6.50
2023-01-03T06:46:17.596Z,6.55
2023-01-03T06:48:59.794Z,6.88
2023-01-03T06:51:42.309Z,6.38
2023-01-03T06:54:20.643Z,6.43
2023-01-03T06:56:50.520Z,6.28
2023-01-03T06:59:21.569Z,7.13
2023-01-03T07:01:57.056Z,4.57
2023-01-03T07:04:28.635Z,6.93
2023-01-03T07:06:58.065Z,4.75
2023-01-03T07:09:29.084Z,6.80
2023-01-03T07:12:18.345Z,10.10
2023-01-03T07:14:45.662Z,8.20
2023-01-03T07:17:16.206Z,7.57
2023-01-03T07:19:46.593Z,5.50
2023-01-03T07:22:15.828Z,9.95
2023-01-03T07:24:46.884Z,7.18
2023-01-03T07:27:21.182Z,3.75
2023-01-03T07:29:50.418Z,5.18
2023-01-03T07:32:19.596Z,5.25
2023-01-03T07:34:48.696Z,5.55
2023-01-03T07:37:20.409Z,5.43
2023-01-03T07:39:52.072Z,4.80
2023-01-03T07:42:44.188Z,6.88
2023-01-03T07:45:13.627Z,4.13
2023-01-03T07:47:51.081Z,4.05
2023-01-03T07:50:20.305Z,6.28
2023-01-03T07:52:49.518Z,5.35
2023-01-03T07:55:21.155Z,3.50
2023-01-03T07:57:50.321Z,5.20
2023-01-03T08:00:19.872Z,4.30
2023-01-03T08:02:50.080Z,5.68
2023-01-03T08:05:19.543Z,6.00
2023-01-03T08:10:48.423Z,7.05
2023-01-03T08:13:20.526Z,6.32
2023-01-03T08:15:51.773Z,8.63
2023-01-03T08:18:27.958Z,7.50
2023-01-03T08:21:02.546Z,6.72
2023-01-03T08:23:31.908Z,5.70
2023-01-03T08:26:08.892Z,7.75
2023-01-03T08:28:43.614Z,5.75
2023-01-03T08:31:20.344Z,7.30
2023-01-03T08:33:54.818Z,7.38
2023-01-03T08:36:25.820Z,7.72
2023-01-03T08:38:59.688Z,7.97
2023-01-03T08:41:33.664Z,6.63
2023-01-03T08:44:05.190Z,8.68
2023-01-03T08:46:35.513Z,6.68
2023-01-03T08:49:04.828Z,7.05
2023-01-03T08:51:34.433Z,6.03
2023-01-03T08:54:03.699Z,8.20
2023-01-03T08:56:35.327Z,7.60
2023-01-03T08:59:04.808Z,7.28
2023-01-03T09:01:34.472Z,7.40
2023-01-03T09:04:04.967Z,8.45
2023-01-03T09:06:34.500Z,8.45
2023-01-03T09:09:06.495Z,7.55
2023-01-03T09:11:37.723Z,8.80
2023-01-03T09:14:07.003Z,9.23
2023-01-03T09:16:36.307Z,9.15
2023-01-03T09:19:05.560Z,10.30
2023-01-03T09:21:34.666Z,10.02
2023-01-03T09:24:10.492Z,9.60
2023-01-03T09:26:41.761Z,8.50
2023-01-03T09:29:16.005Z,9.35
2023-01-03T09:31:45.956Z,15.23
2023-01-03T09:34:15.444Z,10.80
2023-01-03T09:36:47.214Z,11.50
2023-01-03T09:42:07.698Z,10.10
2023-01-03T09:44:37.069Z,9.68
2023-01-03T09:47:06.531Z,10.85
2023-01-03T09:50:18.381Z,11.00
2023-01-03T09:52:49.070Z,9.68
2023-01-03T09:55:40.685Z,9.80
2023-01-03T09:58:29.165Z,6.75
2023-01-03T10:01:15.748Z,9.93
2023-01-03T10:04:00.193Z,10.80
2023-01-03T10:06:42.233Z,9.68
2023-01-03T10:09:25.082Z,8.95
2023-01-03T10:12:05.750Z,8.85
2023-01-03T10:14:53.421Z,8.88
2023-01-03T10:17:30.021Z,12.90
2023-01-03T10:20:11.204Z,10.90
2023-01-03T10:22:41.792Z,9.53
2023-01-03T10:25:14.345Z,12.13
2023-01-03T10:30:56.560Z,9.40
2023-01-03T10:33:39.787Z,8.95
2023-01-03T10:36:09.843Z,8.30
2023-01-03T10:38:46.232Z,8.50
2023-01-03T10:41:33.448Z,8.57
2023-01-03T10:44:09.801Z,7.72
2023-01-03T10:46:53.030Z,8.50
2023-01-03T10:49:27.754Z,8.40
2023-01-03T10:52:06.304Z,8.95
2023-01-03T10:54:50.143Z,8.88
2023-01-03T10:57:43.054Z,9.95
2023-01-03T11:00:33.058Z,8.43
2023-01-03T11:03:19.639Z,7.65
2023-01-03T11:08:44.038Z,8.00
2023-01-03T11:11:35.134Z,7.88
2023-01-03T11:14:18.634Z,7.18
2023-01-03T11:16:56.112Z,7.43
2023-01-03T11:19:30.569Z,7.47
2023-01-03T11:22:12.971Z,8.10
2023-01-03T11:24:55.795Z,8.75
2023-01-03T11:27:36.795Z,9.02
2023-01-03T11:30:18.613Z,8.73
2023-01-03T11:33:04.127Z,8.75
2023-01-03T11:35:54.584Z,10.50
2023-01-03T11:38:51.543Z,10.30
2023-01-03T11:41:39.864Z,8.75
2023-01-03T11:44:45.311Z,9.65
2023-01-03T11:47:27.705Z,9.25
2023-01-03T11:50:15.477Z,9.68
2023-01-03T11:52:52.461Z,12.52
2023-01-03T11:55:44.140Z,12.95
2023-01-03T11:58:35.372Z,11.88
2023-01-03T12:01:13.782Z,12.18
2023-01-03T12:04:00.742Z,16.45
2023-01-03T12:06:36.395Z,17.10
2023-01-03T12:09:22.187Z,18.30
2023-01-03T12:12:19.520Z,16.50
2023-01-03T12:14:53.572Z,17.20
2023-01-03T12:17:27.763Z,17.60
2023-01-03T12:20:07.957Z,18.42
2023-01-03T12:22:39.753Z,20.58
2023-01-03T12:25:22.262Z,17.23
2023-01-03T12:27:54.944Z,16.35
2023-01-03T12:30:37.113Z,21.80
2023-01-03T12:33:23.597Z,20.42
2023-01-03T12:38:52.430Z,18.70
2023-01-03T12:41:29.239Z,17.48
2023-01-03T12:44:04.907Z,17.02
2023-01-03T12:46:49.927Z,14.50
2023-01-03T12:54:40.737Z,11.60
2023-01-03T12:57:44.755Z,15.35
2023-01-03T13:00:39.438Z,14.48
2023-01-03T13:03:17.218Z,15.13
2023-01-03T13:05:51.317Z,13.85
2023-01-03T13:08:31.273Z,11.40
2023-01-03T13:11:07.223Z,15.07
2023-01-03T13:13:37.432Z,13.98
2023-01-03T13:16:36.283Z,13.90
2023-01-03T13:19:41.612Z,16.25
2023-01-03T13:25:32.532Z,12.55
2023-01-03T13:28:13.768Z,17.17
2023-01-03T13:30:43.175Z,18.33
2023-01-03T13:33:25.889Z,19.05
2023-01-03T13:36:01.743Z,12.65
2023-01-03T13:38:37.027Z,14.27
2023-01-03T13:41:31.683Z,14.35
2023-01-03T13:44:10.639Z,11.68
2023-01-03T13:46:43.891Z,9.77
2023-01-03T13:52:04.990Z,11.70
2023-01-03T13:54:58.929Z,14.38
2023-01-03T13:57:37.464Z,10.93
2023-01-03T14:00:19.573Z,10.75
2023-01-03T14:03:29.281Z,12.65
2023-01-03T14:06:38.395Z,13.25
2023-01-03T14:09:30.358Z,9.60
2023-01-03T14:15:25.826Z,7.68
2023-01-03T14:18:00.545Z,6.68
2023-01-03T14:20:33.960Z,8.88
2023-01-03T14:23:48.912Z,6.80
2023-01-03T14:28:57.941Z,6.68
2023-01-03T14:31:34.828Z,8.82
2023-01-03T14:36:51.342Z,11.52
2023-01-03T14:42:02.299Z,9.77
2023-01-03T14:44:31.894Z,8.00
2023-01-03T14:49:49.703Z,5.90
2023-01-03T14:52:23.889Z,8.13
2023-01-03T14:55:01.581Z,5.22
2023-01-03T14:57:34.183Z,8.43
2023-01-03T15:00:07.229Z,5.47
2023-01-03T15:02:41.099Z,9.85
2023-01-03T15:05:28.883Z,8.23
2023-01-03T15:08:09.115Z,7.85
2023-01-03T15:10:45.437Z,7.40
2023-01-03T15:16:22.143Z,7.65
2023-01-03T15:19:03.787Z,6.13
2023-01-03T15:21:33.251Z,10.90
2023-01-03T15:24:03.031Z,7.68
2023-01-03T15:26:40.951Z,8.23
2023-01-03T15:29:20.540Z,7.22
2023-01-03T15:31:53.377Z,7.35
2023-01-03T15:34:28.642Z,7.03
2023-01-03T15:37:01.289Z,10.18
2023-01-03T15:39:38.455Z,10.52
2023-01-03T15:42:44.153Z,9.52
2023-01-03T15:45:21.242Z,10.23
2023-01-03T15:47:55.303Z,9.73
2023-01-03T15:50:42.086Z,8.02
2023-01-03T15:53:22.928Z,8.00
2023-01-03T15:55:54.345Z,7.40
2023-01-03T15:58:26.134Z,9.07
2023-01-03T16:00:55.686Z,9.48
2023-01-03T16:03:26.569Z,7.15
2023-01-03T16:05:58.095Z,7.63
2023-01-03T16:11:19.465Z,8.35
2023-01-03T16:13:53.067Z,6.80
2023-01-03T16:16:26.191Z,8.20
2023-01-03T16:18:57.200Z,7.20
2023-01-03T16:21:30.593Z,8.35
2023-01-03T16:24:05.051Z,8.25
2023-01-03T16:26:34.475Z,5.22
2023-01-03T16:29:03.648Z,4.97
2023-01-03T16:31:34.708Z,4.28
2023-01-03T16:34:06.081Z,4.50
2023-01-03T16:36:39.305Z,5.95
2023-01-03T16:39:15.034Z,5.15
2023-01-03T16:44:53.896Z,4.20
2023-01-03T16:47:25.993Z,3.33
2023-01-03T16:50:00.287Z,3.15
2023-01-03T16:52:36.338Z,3.28
2023-01-03T16:55:18.983Z,5.20
2023-01-03T16:57:53.878Z,5.50
2023-01-03T17:00:26.481Z,5.80
2023-01-03T17:02:58.994Z,3.85
2023-01-03T17:05:28.854Z,4.05
2023-01-03T17:08:05.667Z,3.20
2023-01-03T17:10:38.746Z,4.80
2023-01-03T17:13:12.873Z,2.63
2023-01-03T17:15:42.766Z,4.38
2023-01-03T17:18:20.557Z,4.20
2023-01-03T17:20:54.356Z,4.20
2023-01-03T17:23:31.530Z,4.65
2023-01-03T17:26:00.886Z,3.63
2023-01-03T17:28:31.280Z,3.38
2023-01-03T17:31:00.672Z,3.15
2023-01-03T17:33:34.112Z,2.45
2023-01-03T17:36:03.879Z,2.92
2023-01-03T17:38:36.306Z,2.17
2023-01-03T17:41:05.601Z,2.20
2023-01-03T17:43:35.029Z,7.05
2023-01-03T17:46:24.069Z,1.77
2023-01-03T17:49:06.443Z,2.85
2023-01-03T17:54:06.688Z,1.48
2023-01-03T17:56:36.992Z,2.55
2023-01-03T17:59:06.598Z,1.95
2023-01-03T18:01:35.966Z,3.40
2023-01-03T18:04:05.697Z,2.80
2023-01-03T18:06:35.384Z,1.48
2023-01-03T18:09:09.521Z,1.48
2023-01-03T18:11:38.791Z,2.95
2023-01-03T18:14:08.052Z,3.65
2023-01-03T18:16:37.435Z,2.17
2023-01-03T18:19:07.244Z,2.60
2023-01-03T18:21:37.869Z,1.60
2023-01-03T18:24:18.357Z,2.05
2023-01-03T18:26:51.226Z,3.05
2023-01-03T18:29:20.733Z,1.98
2023-01-03T18:31:50.033Z,1.88
2023-01-03T18:34:24.325Z,1.70
2023-01-03T18:36:54.387Z,5.95
2023-01-03T18:39:28.967Z,1.75
2023-01-03T18:42:19.864Z,2.60
2023-01-03T18:44:54.174Z,1.88
2023-01-03T18:47:23.586Z,2.83
2023-01-03T18:49:52.834Z,1.98
2023-01-03T18:52:26.310Z,3.90
2023-01-03T18:54:58.603Z,0.95
2023-01-03T18:57:28.170Z,1.70
2023-01-03T19:00:02.235Z,2.90
2023-01-03T19:02:39.195Z,2.20
2023-01-03T19:05:09.176Z,1.85
2023-01-03T19:07:40.823Z,4.03
2023-01-03T19:10:21.655Z,2.25
2023-01-03T19:12:52.192Z,1.85
2023-01-03T19:15:24.055Z,2.28
2023-01-03T19:17:54.388Z,2.40
2023-01-03T19:20:29.279Z,1.48
2023-01-03T19:22:58.579Z,5.47
2023-01-03T19:25:32.037Z,2.15
2023-01-03T19:28:03.653Z,2.28
2023-01-03T19:33:21.369Z,0.77
2023-01-03T19:35:51.306Z,2.08
2023-01-03T19:38:25.886Z,1.00
2023-01-03T19:40:57.117Z,2.63
2023-01-03T19:43:26.332Z,3.22
2023-01-03T19:45:55.464Z,1.27
2023-01-03T19:48:27.319Z,1.20
2023-01-03T19:50:56.429Z,2.00
2023-01-03T19:53:25.942Z,2.13
2023-01-03T19:55:57.223Z,1.05
2023-01-03T19:58:28.933Z,3.58
2023-01-03T20:00:59.079Z,1.52
2023-01-03T20:03:31.686Z,1.42
2023-01-03T20:06:01.555Z,1.70
2023-01-03T20:08:30.734Z,3.30
2023-01-03T20:11:22.146Z,2.78
2023-01-03T20:13:51.678Z,1.00
2023-01-03T20:16:23.222Z,0.45
2023-01-03T20:18:52.553Z,1.33
2023-01-03T20:21:25.186Z,0.88
2023-01-03T20:23:56.415Z,0.77
2023-01-03T20:26:30.571Z,1.85
2023-01-03T20:29:00.983Z,0.93
2023-01-03T20:31:30.724Z,0.55
2023-01-03T20:34:00.645Z,2.20
2023-01-03T20:36:39.702Z,1.70
2023-01-03T20:39:25.301Z,0.50
2023-01-03T20:42:06.950Z,1.65
2023-01-03T20:44:36.127Z,0.90
2023-01-03T20:47:06.483Z,0.57
2023-01-03T20:49:41.775Z,2.75
2023-01-03T20:52:16.759Z,2.65
2023-01-03T20:54:49.027Z,1.55
2023-01-03T20:57:21.504Z,0.55
2023-01-03T20:59:55.778Z,0.90
2023-01-03T21:02:25.172Z,1.13
2023-01-03T21:04:54.489Z,0.30
2023-01-03T21:07:49.857Z,0.82
2023-01-03T21:10:24.423Z,0.40
2023-01-03T21:12:55.961Z,0.30
2023-01-03T21:15:25.263Z,1.63
2023-01-03T21:17:54.297Z,0.68
2023-01-03T21:20:30.430Z,0.20
2023-01-03T21:22:59.912Z,0.32
2023-01-03T21:25:32.385Z,0.38
2023-01-03T21:28:04.838Z,0.47
2023-01-03T21:30:47.067Z,0.45
2023-01-03T21:33:19.183Z,0.47
2023-01-03T21:35:48.434Z,1.33
2023-01-03T21:38:18.072Z,1.65
2023-01-03T21:40:52.466Z,1.20
2023-01-03T21:43:23.515Z,0.73
2023-01-03T21:45:55.845Z,0.83
2023-01-03T21:48:25.070Z,0.30
2023-01-03T21:50:59.192Z,0.30
2023-01-03T21:53:40.650Z,2.13
2023-01-03T21:56:10.687Z,0.20
2023-01-03T21:58:46.962Z,0.95
2023-01-03T22:01:19.327Z,0.50
2023-01-03T22:04:01.624Z,0.30
2023-01-03T22:06:31.182Z,0.20
2023-01-03T22:09:26.533Z,0.15
2023-01-03T22:14:37.500Z,0.20
2023-01-03T22:17:06.822Z,0.30
2023-01-03T22:19:36.276Z,0.50
2023-01-03T22:24:54.438Z,0.50
2023-01-03T22:27:23.548Z,0.22
2023-01-03T22:32:43.986Z,0.30
2023-01-03T22:35:19.759Z,1.08
2023-01-03T22:37:48.976Z,0.30
2023-01-03T22:40:19.159Z,0.63
2023-01-03T22:42:48.395Z,0.30
2023-01-03T22:45:19.578Z,0.30
2023-01-03T22:47:59.415Z,0.20
2023-01-03T22:50:28.881Z,0.20
2023-01-03T22:52:58.391Z,0.40
2023-01-03T22:55:32.042Z,0.30
2023-01-03T22:58:01.763Z,0.30
2023-01-03T23:00:32.879Z,0.32
2023-01-03T23:05:38.386Z,0.50
2023-01-03T23:08:12.525Z,0.40
2023-01-03T23:10:41.744Z,0.98
2023-01-03T23:13:08.901Z,0.47
2023-01-03T23:15:40.216Z,0.20
2023-01-03T23:18:14.444Z,1.55
2023-01-03T23:20:48.313Z,0.38
2023-01-03T23:25:57.537Z,0.30
2023-01-03T23:31:24.598Z,1.70
2023-01-03T23:33:56.182Z,0.30
2023-01-03T23:36:25.748Z,1.33
2023-01-03T23:38:55.591Z,0.70
2023-01-03T23:41:36.242Z,0.32
2023-01-03T23:44:05.621Z,0.93
2023-01-03T23:46:37.315Z,0.40
2023-01-03T23:49:06.796Z,0.40
2023-01-03T23:51:41.218Z,0.30
2023-01-03T23:56:54.568Z,0.40
